Time;durP1;ratioP1;P1;durP2;ratioP2;P2;SDS_P1;SDS_P2;PMS_P1;PMS_P2;Temp;Humidity;BMP_temperature;BMP_pressure;BME280_temperature;BME280_humidity;BME280_pressure;Samples;Min_cycle;Max_cycle;Signal;HPM_P1;HPM_P2
2022/02/06 00:01:15;;;;;;;18.90;14.25;;;21.10;94.00;;;;;;4219051;28;20043;-65
2022/02/06 00:03:21;;;;;;;23.55;17.85;;;21.10;94.10;;;;;;4223896;28;20052;-66
2022/02/06 00:05:26;;;;;;;24.20;19.45;;;21.10;94.00;;;;;;4226183;28;20039;-63
2022/02/06 00:07:31;;;;;;;26.15;19.73;;;20.90;94.20;;;;;;4224560;28;20043;-68
2022/02/06 00:09:35;;;;;;;22.33;17.95;;;21.00;94.00;;;;;;4229191;28;20047;-65
2022/02/06 00:12:00;;;;;;;19.85;14.98;;;21.00;94.00;;;;;;4229078;28;20043;-65
2022/02/06 00:14:04;;;;;;;18.77;13.45;;;21.10;93.80;;;;;;4230263;28;20394;-67
2022/02/06 00:16:10;;;;;;;16.45;13.38;;;21.10;93.60;;;;;;4230249;28;20501;-64
2022/02/06 00:18:14;;;;;;;22.15;12.35;;;21.10;93.80;;;;;;4220873;28;20044;-65
2022/02/06 00:20:19;;;;;;;18.13;12.07;;;21.20;93.80;;;;;;4225786;28;20052;-65
2022/02/06 00:22:38;;;;;;;19.60;12.38;;;21.20;93.70;;;;;;4224713;28;20685;-66
2022/02/06 00:24:50;;;;;;;19.13;13.07;;;21.00;93.90;;;;;;4225891;28;20056;-66
2022/02/06 00:27:01;;;;;;;21.13;13.52;;;20.80;94.30;;;;;;4224375;28;20053;-67
2022/02/06 00:29:29;;;;;;;24.27;13.25;;;20.90;94.20;;;;;;4219813;28;20047;-65
2022/02/06 00:31:50;;;;;;;24.05;14.40;;;21.00;94.30;;;;;;4219238;28;20036;-66
2022/02/06 00:38:34;;;;;;;22.40;13.23;;;21.10;93.90;;;;;;4222854;28;20112;-65
2022/02/06 00:42:55;;;;;;;17.77;12.63;;;21.10;93.90;;;;;;4226993;28;20055;-66
2022/02/06 00:45:00;;;;;;;17.63;12.40;;;21.00;93.90;;;;;;4221978;28;20745;-65
2022/02/06 00:47:05;;;;;;;25.65;11.63;;;21.00;93.70;;;;;;4241043;27;20092;-65
2022/02/06 00:51:40;;;;;;;22.27;15.27;;;21.20;93.40;;;;;;4226296;28;20047;-64
2022/02/06 00:53:41;;;;;;;;;;;21.10;93.50;;;;;;4220223;28;20075;-64
2022/02/06 00:55:46;;;;;;;29.38;17.35;;;21.00;93.90;;;;;;4223021;28;20275;-64
2022/02/06 00:57:50;;;;;;;29.30;17.63;;;21.10;93.50;;;;;;4223077;28;20054;-64
2022/02/06 00:59:55;;;;;;;28.02;17.55;;;21.20;93.40;;;;;;4222650;28;20069;-64
2022/02/06 01:01:59;;;;;;;23.10;15.90;;;21.20;93.30;;;;;;4221152;28;20350;-63
2022/02/06 01:04:04;;;;;;;25.23;15.20;;;21.00;93.40;;;;;;4223879;28;20157;-62
2022/02/06 01:06:08;;;;;;;18.45;13.75;;;21.20;93.30;;;;;;4204257;28;20032;-63
2022/02/06 01:08:12;;;;;;;26.42;13.40;;;21.40;93.10;;;;;;4219383;28;20058;-62
2022/02/06 01:10:17;;;;;;;24.15;13.63;;;21.20;92.90;;;;;;4222784;28;20036;-66
2022/02/06 01:12:25;;;;;;;20.35;13.80;;;21.30;92.80;;;;;;4221528;28;20048;-65
2022/02/06 01:19:19;;;;;;;22.02;13.88;;;21.10;93.10;;;;;;4223001;28;20113;-65
2022/02/06 01:23:55;;;;;;;;;;;21.20;93.30;;;;;;4224972;28;20041;-65
2022/02/06 01:26:16;;;;;;;31.42;21.50;;;21.20;93.10;;;;;;4223840;28;19920;-65
2022/02/06 01:28:27;;;;;;;29.20;19.17;;;21.10;93.10;;;;;;4222874;28;20089;-65
2022/02/06 01:30:43;;;;;;;22.50;17.00;;;21.20;93.00;;;;;;4224406;28;20044;-65
2022/02/06 01:33:11;;;;;;;23.42;16.77;;;21.20;93.00;;;;;;4225500;28;20406;-65
2022/02/06 01:35:17;;;;;;;26.63;17.50;;;21.40;92.90;;;;;;4224378;28;20039;-64
2022/02/06 01:41:36;;;;;;;21.95;13.07;;;21.60;91.90;;;;;;4222349;28;20031;-64
2022/02/06 01:43:47;;;;;;;17.15;13.35;;;21.60;91.90;;;;;;4222843;28;20125;-65
2022/02/06 02:11:35;;;;;;;15.32;11.13;;;21.90;91.20;;;;;;4232602;28;20046;-65
2022/02/06 02:26:56;;;;;;;13.13;8.85;;;22.20;91.20;;;;;;4222068;28;20121;-64
2022/02/06 02:42:54;;;;;;;12.68;9.68;;;22.20;90.90;;;;;;4223416;28;20035;-65
2022/02/06 02:47:22;;;;;;;13.00;9.27;;;22.50;90.30;;;;;;4224343;28;20088;-65
2022/02/06 02:49:30;;;;;;;13.15;9.77;;;22.50;90.60;;;;;;4229622;28;20100;-66
2022/02/06 02:51:40;;;;;;;17.08;9.60;;;22.70;90.30;;;;;;4223260;28;20035;-65
2022/02/06 02:53:54;;;;;;;13.10;9.98;;;22.70;90.30;;;;;;4231152;28;20043;-66
2022/02/06 03:00:36;;;;;;;13.80;9.95;;;23.10;90.00;;;;;;4226186;28;20035;-64
2022/02/06 03:02:40;;;;;;;12.45;9.57;;;23.00;89.60;;;;;;4222635;28;20051;-65
2022/02/06 03:04:50;;;;;;;16.83;9.80;;;23.20;89.70;;;;;;4229241;28;20046;-65
2022/02/06 03:06:55;;;;;;;16.80;10.00;;;23.20;89.30;;;;;;4224200;28;20043;-65
2022/02/06 03:09:01;;;;;;;15.32;9.10;;;23.40;89.50;;;;;;4225328;28;20042;-64
2022/02/06 03:11:08;;;;;;;11.55;9.27;;;23.50;89.50;;;;;;4224972;28;20027;-65
2022/02/06 03:13:17;;;;;;;16.92;12.05;;;23.50;89.20;;;;;;4231618;28;20123;-66
2022/02/06 03:15:38;;;;;;;24.38;17.05;;;23.30;88.90;;;;;;4225884;28;20074;-65
2022/02/06 03:17:46;;;;;;;20.92;14.23;;;23.20;89.30;;;;;;4228015;28;20094;-64
2022/02/06 03:19:55;;;;;;;15.65;12.00;;;23.20;88.50;;;;;;4227280;28;20040;-64
2022/02/06 03:22:00;;;;;;;14.20;10.05;;;23.10;89.30;;;;;;4227566;28;20070;-65
2022/02/06 03:26:23;;;;;;;16.02;11.18;;;23.40;88.40;;;;;;4229918;28;20108;-66
2022/02/06 03:28:27;;;;;;;17.45;12.30;;;23.40;88.90;;;;;;4227944;28;20039;-64
2022/02/06 03:30:33;;;;;;;19.30;11.70;;;23.30;89.00;;;;;;4224096;28;20051;-65
2022/02/06 03:32:37;;;;;;;14.23;11.55;;;23.50;88.20;;;;;;4219685;28;20036;-65
2022/02/06 03:34:42;;;;;;;17.02;11.88;;;23.50;89.00;;;;;;4227501;28;20043;-65
2022/02/06 03:36:49;;;;;;;16.73;11.55;;;23.50;88.00;;;;;;4222184;28;20111;-64
2022/02/06 03:38:53;;;;;;;14.38;10.18;;;23.30;89.00;;;;;;4225767;28;20086;-64
2022/02/06 03:41:05;;;;;;;15.52;10.48;;;23.30;88.40;;;;;;4228740;28;20055;-65
2022/02/06 03:43:23;;;;;;;14.98;11.02;;;23.40;89.30;;;;;;4209840;28;20045;-65
2022/02/06 03:45:35;;;;;;;15.13;10.80;;;23.40;88.60;;;;;;4229205;28;20100;-66
2022/02/06 03:50:02;;;;;;;15.98;11.20;;;23.50;89.10;;;;;;4215771;28;20040;-66
2022/02/06 03:52:06;;;;;;;16.02;11.57;;;23.50;88.80;;;;;;4222916;28;20127;-66
2022/02/06 03:54:11;;;;;;;16.30;10.75;;;23.50;88.70;;;;;;4217031;28;20046;-65
2022/02/06 03:56:16;;;;;;;14.52;10.82;;;23.30;89.00;;;;;;4225128;28;20438;-64
2022/02/06 03:58:20;;;;;;;14.43;10.60;;;23.40;89.90;;;;;;4215022;28;20543;-65
2022/02/06 04:00:26;;;;;;;15.95;10.75;;;23.60;89.20;;;;;;4217896;28;20044;-65
2022/02/06 04:02:30;;;;;;;13.90;10.32;;;23.70;87.70;;;;;;4220142;28;20041;-65
2022/02/06 04:04:34;;;;;;;17.40;10.70;;;23.70;89.30;;;;;;4219805;28;20501;-66
2022/02/06 04:06:38;;;;;;;15.18;10.27;;;23.80;87.90;;;;;;4222233;28;20118;-65
2022/02/06 04:08:43;;;;;;;13.57;10.88;;;23.60;88.40;;;;;;4221476;28;20044;-65
2022/02/06 04:10:51;;;;;;;13.88;10.02;;;23.70;88.30;;;;;;4220283;28;20069;-65
2022/02/06 04:12:55;;;;;;;15.15;10.50;;;23.70;87.90;;;;;;4220039;28;20471;-65
2022/02/06 04:15:06;;;;;;;14.63;9.80;;;23.70;88.20;;;;;;4223055;28;20055;-65
2022/02/06 04:17:22;;;;;;;13.50;10.10;;;23.90;88.40;;;;;;4219491;28;20050;-65
2022/02/06 04:19:26;;;;;;;15.82;9.75;;;24.10;88.40;;;;;;4223495;28;20051;-65
2022/02/06 04:21:31;;;;;;;14.95;10.57;;;24.20;87.60;;;;;;4221034;28;20564;-65
2022/02/06 04:23:36;;;;;;;15.75;10.07;;;24.30;87.70;;;;;;4222038;28;20719;-65
2022/02/06 04:25:40;;;;;;;13.80;10.27;;;24.40;87.40;;;;;;4223436;28;20473;-65
2022/02/06 04:28:04;;;;;;;11.80;9.38;;;24.20;87.40;;;;;;4219809;28;20489;-65
2022/02/06 04:30:09;;;;;;;13.52;9.63;;;24.20;88.40;;;;;;4221684;28;20032;-66
2022/02/06 04:32:14;;;;;;;14.98;9.60;;;24.40;87.70;;;;;;4222270;28;20059;-65
2022/02/06 04:34:24;;;;;;;14.32;10.20;;;24.50;87.60;;;;;;4218998;28;20096;-66
2022/02/06 04:36:35;;;;;;;14.85;10.30;;;24.30;86.10;;;;;;4205555;28;20047;-65
2022/02/06 04:38:54;;;;;;;12.75;9.88;;;24.20;87.70;;;;;;4220906;28;20069;-65
2022/02/06 05:27:56;;;;;;;12.07;8.60;;;25.60;86.00;;;;;;4220205;28;20108;-63
2022/02/06 05:30:06;;;;;;;13.55;8.40;;;25.60;85.70;;;;;;4224668;28;20599;-65
2022/02/06 05:34:15;;;;;;;11.57;8.52;;;25.70;85.40;;;;;;4222582;28;20052;-67
2022/02/06 05:36:19;;;;;;;9.57;7.75;;;25.80;84.90;;;;;;4223235;28;20143;-65
2022/02/06 05:38:24;;;;;;;12.25;8.80;;;25.80;85.40;;;;;;4223136;28;20085;-65
2022/02/06 05:40:28;;;;;;;10.55;8.13;;;25.90;84.90;;;;;;4221365;27;20067;-65
2022/02/06 05:42:32;;;;;;;10.95;8.10;;;26.00;84.90;;;;;;4225988;28;20101;-65
2022/02/06 05:44:36;;;;;;;12.90;9.00;;;25.80;84.70;;;;;;4223513;28;20493;-66
2022/02/06 05:46:41;;;;;;;13.93;9.27;;;25.90;85.00;;;;;;4225145;28;20728;-66
2022/02/06 05:48:45;;;;;;;13.40;8.98;;;25.90;84.30;;;;;;4222620;28;20043;-65
2022/02/06 05:50:49;;;;;;;15.60;8.70;;;25.90;84.40;;;;;;4223217;28;20496;-65
2022/02/06 05:52:54;;;;;;;10.73;8.10;;;26.00;84.90;;;;;;4220712;28;20536;-66
2022/02/06 05:54:59;;;;;;;11.77;8.07;;;26.00;84.80;;;;;;4220088;28;20060;-66
2022/02/06 05:57:03;;;;;;;8.65;7.70;;;26.10;85.00;;;;;;4223195;28;20090;-64
2022/02/06 05:59:08;;;;;;;10.52;7.88;;;26.20;84.30;;;;;;4204732;28;20414;-65
2022/02/06 06:01:13;;;;;;;9.68;7.32;;;26.20;85.10;;;;;;4222888;28;20209;-65
2022/02/06 06:03:17;;;;;;;11.38;7.97;;;26.30;85.30;;;;;;4224752;28;20086;-65
2022/02/06 06:05:21;;;;;;;9.55;7.78;;;26.30;85.00;;;;;;4223339;28;20031;-65
2022/02/06 06:07:26;;;;;;;10.07;7.72;;;26.40;85.20;;;;;;4224300;28;20052;-65
2022/02/06 06:09:30;;;;;;;11.57;9.13;;;26.40;85.10;;;;;;4223770;28;20081;-65
2022/02/06 06:11:35;;;;;;;13.15;8.48;;;26.50;83.50;;;;;;4223957;28;20383;-65
2022/02/06 06:13:39;;;;;;;12.15;8.77;;;26.40;83.80;;;;;;4221667;28;20408;-66
2022/02/06 06:15:43;;;;;;;12.80;8.93;;;26.30;83.90;;;;;;4222289;28;20047;-65
2022/02/06 06:17:48;;;;;;;15.55;9.90;;;26.40;84.00;;;;;;4222333;28;20085;-65
2022/02/06 06:19:54;;;;;;;11.43;8.82;;;26.30;83.80;;;;;;4221128;28;20055;-65
2022/02/06 06:21:59;;;;;;;10.30;7.82;;;26.30;83.50;;;;;;4222506;28;20109;-65
2022/02/06 06:24:04;;;;;;;12.73;8.38;;;26.40;83.80;;;;;;4221932;28;20047;-65
2022/02/06 06:26:11;;;;;;;11.30;7.80;;;26.50;82.80;;;;;;4220722;28;20424;-65
2022/02/06 06:28:16;;;;;;;9.50;8.02;;;26.50;83.00;;;;;;4221060;28;20097;-65
2022/02/06 06:30:21;;;;;;;10.73;7.63;;;26.40;82.70;;;;;;4221634;28;20089;-65
2022/02/06 06:32:25;;;;;;;10.85;7.82;;;26.50;83.50;;;;;;4221040;28;20557;-64
2022/02/06 06:34:29;;;;;;;12.25;8.05;;;26.40;83.70;;;;;;4221060;28;20085;-64
2022/02/06 06:36:36;;;;;;;10.65;7.65;;;26.50;83.70;;;;;;4224582;28;20097;-65
2022/02/06 06:38:40;;;;;;;13.52;8.38;;;26.50;83.60;;;;;;4222900;28;20049;-65
2022/02/06 06:40:44;;;;;;;13.90;7.72;;;26.50;83.50;;;;;;4222695;28;20054;-64
2022/02/06 06:42:49;;;;;;;9.85;7.47;;;26.60;83.50;;;;;;4224511;28;20063;-64
2022/02/06 06:44:53;;;;;;;10.98;7.88;;;26.60;82.70;;;;;;4222151;28;20071;-65
2022/02/06 06:46:57;;;;;;;10.93;7.75;;;26.60;82.80;;;;;;4220772;28;20067;-64
2022/02/06 06:49:02;;;;;;;9.50;7.18;;;26.50;83.00;;;;;;4222062;28;20040;-65
2022/02/06 06:51:09;;;;;;;10.57;7.68;;;26.50;83.10;;;;;;4221976;28;20631;-65
2022/02/06 06:53:14;;;;;;;11.57;7.95;;;26.60;83.10;;;;;;4217996;28;20040;-64
2022/02/06 06:55:20;;;;;;;11.38;7.13;;;26.50;82.70;;;;;;4218297;28;20056;-65
2022/02/06 06:57:30;;;;;;;10.15;6.75;;;26.60;82.70;;;;;;4221602;27;20044;-65
2022/02/06 07:01:47;;;;;;;9.88;6.40;;;26.70;83.60;;;;;;4221472;28;20047;-64
2022/02/06 07:03:51;;;;;;;10.75;7.93;;;26.70;83.80;;;;;;4218593;28;20048;-65
2022/02/06 07:05:55;;;;;;;10.05;7.10;;;26.80;82.90;;;;;;4221118;28;20095;-64
2022/02/06 07:08:00;;;;;;;10.23;7.35;;;26.80;81.60;;;;;;4223934;28;20047;-65
2022/02/06 07:10:05;;;;;;;9.13;7.35;;;26.70;81.90;;;;;;4221503;28;20490;-65
2022/02/06 07:12:13;;;;;;;11.50;7.10;;;26.70;81.80;;;;;;4221904;28;20047;-65
2022/02/06 07:14:17;;;;;;;12.93;6.90;;;26.70;81.80;;;;;;4221686;28;20585;-65
2022/02/06 07:16:21;;;;;;;11.82;7.30;;;26.70;82.40;;;;;;4222968;28;20040;-65
2022/02/06 07:18:26;;;;;;;9.77;6.25;;;26.80;83.00;;;;;;4221262;28;20489;-64
2022/02/06 07:20:33;;;;;;;12.00;6.85;;;26.90;82.00;;;;;;4223165;28;20064;-65
2022/02/06 07:22:39;;;;;;;8.45;7.28;;;26.90;81.60;;;;;;4224416;28;20086;-64
2022/02/06 07:24:43;;;;;;;11.70;7.28;;;27.00;82.10;;;;;;4219429;28;20052;-64
2022/02/06 07:26:51;;;;;;;8.55;6.00;;;27.00;82.00;;;;;;4219854;28;20036;-65
2022/02/06 07:28:59;;;;;;;7.95;6.20;;;27.00;81.60;;;;;;4222025;28;20480;-65
2022/02/06 07:31:03;;;;;;;8.70;6.05;;;27.00;81.50;;;;;;4220448;28;20506;-65
2022/02/06 07:33:08;;;;;;;7.70;5.60;;;27.00;81.30;;;;;;4225086;28;20047;-65
2022/02/06 07:35:12;;;;;;;8.93;6.03;;;27.00;81.00;;;;;;4221523;28;20031;-65
2022/02/06 07:37:17;;;;;;;9.13;5.32;;;27.00;80.60;;;;;;4221008;28;20059;-64
2022/02/06 07:39:21;;;;;;;7.18;5.75;;;27.00;81.20;;;;;;4219706;28;20123;-64
2022/02/06 07:41:25;;;;;;;7.30;5.60;;;27.00;80.70;;;;;;4219581;28;20499;-65
2022/02/06 07:43:29;;;;;;;8.20;5.50;;;27.00;80.90;;;;;;4222066;28;20039;-64
2022/02/06 07:45:37;;;;;;;6.78;4.40;;;27.00;80.90;;;;;;4220995;28;20157;-64
2022/02/06 07:47:45;;;;;;;7.18;4.68;;;27.00;80.50;;;;;;4220901;28;20611;-65
2022/02/06 07:49:53;;;;;;;6.53;4.97;;;27.00;80.40;;;;;;4223417;28;20039;-65
2022/02/06 07:51:58;;;;;;;6.35;4.50;;;27.10;80.80;;;;;;4219509;28;20047;-64
2022/02/06 07:54:03;;;;;;;11.77;5.10;;;27.10;80.50;;;;;;4221446;28;20402;-64
2022/02/06 07:56:09;;;;;;;8.65;4.60;;;27.10;80.00;;;;;;4218972;28;20052;-65
2022/02/06 07:58:13;;;;;;;8.45;5.10;;;27.20;80.60;;;;;;4219073;28;20044;-65
2022/02/06 08:00:18;;;;;;;6.18;4.82;;;27.20;80.80;;;;;;4222508;28;20043;-65
2022/02/06 08:02:22;;;;;;;9.45;4.50;;;27.20;80.80;;;;;;4219748;28;20093;-64
2022/02/06 08:04:28;;;;;;;6.40;4.50;;;27.20;80.10;;;;;;4218618;28;20126;-64
2022/02/06 08:06:32;;;;;;;8.82;4.10;;;27.20;80.20;;;;;;4219463;28;20043;-64
2022/02/06 08:08:38;;;;;;;5.68;4.10;;;27.20;80.20;;;;;;4219607;28;20046;-65
2022/02/06 08:10:42;;;;;;;5.25;4.30;;;27.20;81.00;;;;;;4221788;28;20066;-65
2022/02/06 08:12:56;;;;;;;6.38;4.50;;;27.30;81.20;;;;;;4218067;28;20399;-65
2022/02/06 08:15:03;;;;;;;;;;;27.40;81.00;;;;;;4219713;28;20125;-65
2022/02/06 08:17:08;;;;;;;4.85;4.28;;;27.40;81.00;;;;;;4218969;28;19920;-65
2022/02/06 08:19:13;;;;;;;6.00;4.30;;;27.40;80.80;;;;;;4219893;28;20513;-65
2022/02/06 08:21:18;;;;;;;5.55;4.38;;;27.40;80.80;;;;;;4220555;28;20054;-66
2022/02/06 08:23:22;;;;;;;6.18;4.40;;;27.40;80.90;;;;;;4219724;28;20515;-65
2022/02/06 08:25:28;;;;;;;4.93;3.75;;;27.40;81.40;;;;;;4217867;28;20059;-65
2022/02/06 08:27:32;;;;;;;4.65;3.38;;;27.40;79.90;;;;;;4219500;28;20032;-64
2022/02/06 08:29:39;;;;;;;5.85;3.47;;;27.40;78.20;;;;;;4218098;28;20131;-65
2022/02/06 08:31:44;;;;;;;5.03;3.45;;;27.40;79.10;;;;;;4216937;28;20127;-64
2022/02/06 08:33:48;;;;;;;4.78;3.45;;;27.40;78.50;;;;;;4212458;28;20054;-64
2022/02/06 08:35:52;;;;;;;6.68;3.92;;;27.30;78.50;;;;;;4215650;28;20062;-65
2022/02/06 08:37:57;;;;;;;6.15;4.28;;;27.30;78.60;;;;;;4223469;28;20671;-65
2022/02/06 08:40:06;;;;;;;7.93;4.55;;;27.30;78.80;;;;;;4220707;28;20056;-65
2022/02/06 08:42:11;;;;;;;6.22;3.97;;;27.30;79.10;;;;;;4216998;28;20048;-65
2022/02/06 08:44:15;;;;;;;5.85;4.30;;;27.30;78.90;;;;;;4221594;28;20104;-65
2022/02/06 08:46:19;;;;;;;6.00;3.83;;;27.30;78.30;;;;;;4222717;28;20039;-65
2022/02/06 08:48:24;;;;;;;6.38;3.42;;;27.40;79.00;;;;;;4222933;28;20035;-64
2022/02/06 08:50:28;;;;;;;4.53;3.65;;;27.40;78.70;;;;;;4221738;28;20415;-64
2022/02/06 08:52:33;;;;;;;6.07;3.90;;;27.40;78.60;;;;;;4220983;28;20551;-66
2022/02/06 08:54:38;;;;;;;7.32;4.15;;;27.50;79.30;;;;;;4219005;28;20093;-65
2022/02/06 08:56:47;;;;;;;5.70;4.25;;;27.50;79.30;;;;;;4220124;28;20051;-64
2022/02/06 08:58:52;;;;;;;7.47;4.47;;;27.50;79.20;;;;;;4219753;28;20062;-64
2022/02/06 09:00:56;;;;;;;7.75;4.47;;;27.50;79.20;;;;;;4220024;28;20062;-64
2022/02/06 09:03:03;;;;;;;5.68;4.50;;;27.50;79.80;;;;;;4222495;28;20052;-65
2022/02/06 09:05:12;;;;;;;7.18;4.47;;;27.50;80.20;;;;;;4220092;28;20492;-65
2022/02/06 09:07:17;;;;;;;6.57;4.68;;;27.50;79.90;;;;;;4219818;28;20101;-65
2022/02/06 09:09:21;;;;;;;6.57;4.40;;;27.50;80.00;;;;;;4220898;28;20093;-64
2022/02/06 09:11:31;;;;;;;5.88;4.18;;;27.50;80.00;;;;;;4220599;28;20040;-65
2022/02/06 09:13:37;;;;;;;6.45;4.57;;;27.50;80.20;;;;;;4220666;28;20118;-65
2022/02/06 09:15:45;;;;;;;7.55;4.90;;;27.50;80.50;;;;;;4219313;28;20501;-64
2022/02/06 09:17:50;;;;;;;6.82;4.50;;;27.60;80.60;;;;;;4219469;28;20055;-65
2022/02/06 09:19:57;;;;;;;7.20;4.80;;;27.60;80.30;;;;;;4220579;28;20429;-65
2022/02/06 09:22:11;;;;;;;6.65;4.15;;;27.60;80.30;;;;;;4218871;28;20047;-65
2022/02/06 09:24:16;;;;;;;6.07;4.50;;;27.60;80.30;;;;;;4220007;28;20078;-64
2022/02/06 09:26:21;;;;;;;6.32;4.60;;;27.60;80.30;;;;;;4219082;28;20353;-63
2022/02/06 09:28:27;;;;;;;5.40;4.38;;;27.60;80.20;;;;;;4218598;28;20036;-64
2022/02/06 09:30:31;;;;;;;5.95;4.43;;;27.60;80.30;;;;;;4222629;28;20112;-64
2022/02/06 09:36:48;;;;;;;7.72;5.22;;;27.60;79.10;;;;;;4220431;28;20051;-65
2022/02/06 09:38:53;;;;;;;8.93;5.47;;;27.50;78.90;;;;;;4219705;28;20048;-64
2022/02/06 09:40:57;;;;;;;7.63;5.18;;;27.50;79.30;;;;;;4220578;28;20055;-65
2022/02/06 09:43:02;;;;;;;6.90;5.32;;;27.50;79.40;;;;;;4218396;28;20044;-65
2022/02/06 09:45:07;;;;;;;7.13;4.93;;;27.50;79.40;;;;;;4220323;28;20650;-66
2022/02/06 09:47:11;;;;;;;6.05;4.65;;;27.50;79.20;;;;;;4219788;28;20118;-65
2022/02/06 09:49:16;;;;;;;6.50;4.85;;;27.50;79.10;;;;;;4222793;28;20123;-65
2022/02/06 09:51:20;;;;;;;6.50;4.65;;;27.40;79.10;;;;;;4219073;28;20040;-66
2022/02/06 09:53:31;;;;;;;5.25;4.38;;;27.40;79.30;;;;;;4216781;28;20066;-65
2022/02/06 09:55:36;;;;;;;8.13;5.13;;;27.40;79.60;;;;;;4219607;28;20631;-65
2022/02/06 09:57:52;;;;;;;7.78;5.32;;;27.40;79.70;;;;;;4224015;28;20490;-65
2022/02/06 09:59:57;;;;;;;5.63;4.57;;;27.40;79.90;;;;;;4224232;28;20043;-64
2022/02/06 10:02:06;;;;;;;8.32;4.88;;;27.50;80.10;;;;;;4224475;28;20539;-65
2022/02/06 10:04:11;;;;;;;10.25;4.97;;;27.40;80.00;;;;;;4215025;28;20048;-66
2022/02/06 10:06:24;;;;;;;11.20;7.13;;;27.40;79.80;;;;;;4212891;28;20808;-65
2022/02/06 10:08:31;;;;;;;14.30;9.95;;;27.40;80.00;;;;;;4213078;28;20123;-64
2022/02/06 10:10:36;;;;;;;17.10;11.20;;;27.40;80.00;;;;;;4226044;28;20743;-64
2022/02/06 10:12:41;;;;;;;43.92;23.20;;;27.40;80.10;;;;;;4226963;28;20035;-65
2022/02/06 10:14:46;;;;;;;27.90;16.38;;;27.40;80.30;;;;;;4227434;28;20136;-64
2022/02/06 10:16:51;;;;;;;23.40;14.35;;;27.40;80.30;;;;;;4228975;28;20464;-64
2022/02/06 10:18:55;;;;;;;23.35;12.65;;;27.40;80.30;;;;;;4228064;28;20052;-64
2022/02/06 10:21:00;;;;;;;35.78;19.58;;;27.40;80.30;;;;;;4230378;28;20044;-64
2022/02/06 10:23:07;;;;;;;38.20;18.95;;;27.40;80.70;;;;;;4223022;27;20112;-65
2022/02/06 10:25:12;;;;;;;35.58;20.50;;;27.40;81.00;;;;;;4228786;28;20040;-65
2022/02/06 10:27:21;;;;;;;32.75;20.30;;;27.30;81.30;;;;;;4226631;28;20051;-64
2022/02/06 10:29:36;;;;;;;36.17;23.40;;;27.30;81.50;;;;;;4229807;28;20048;-65
2022/02/06 10:31:42;;;;;;;45.83;26.90;;;27.30;81.80;;;;;;4206937;28;20032;-65
2022/02/06 10:33:52;;;;;;;49.90;29.75;;;27.30;82.10;;;;;;4226030;28;20636;-65
2022/02/06 10:36:02;;;;;;;63.25;32.40;;;27.20;82.20;;;;;;4225207;28;20105;-65
2022/02/06 10:38:26;;;;;;;50.60;27.92;;;27.30;82.50;;;;;;4224479;28;20103;-66
2022/02/06 10:40:30;;;;;;;46.75;24.08;;;27.20;82.90;;;;;;4226802;28;20135;-65
2022/02/06 10:42:37;;;;;;;37.67;20.30;;;27.20;83.10;;;;;;4228964;28;20040;-67
2022/02/06 10:44:41;;;;;;;43.83;22.08;;;27.10;83.20;;;;;;4228858;28;20561;-66
2022/02/06 10:46:51;;;;;;;31.58;18.35;;;27.10;83.50;;;;;;4230366;28;20067;-66
2022/02/06 10:48:59;;;;;;;31.50;14.63;;;27.10;83.70;;;;;;4216891;28;20103;-65
2022/02/06 10:51:03;;;;;;;21.70;12.25;;;27.10;83.90;;;;;;4227908;28;20172;-65
2022/02/06 10:53:13;;;;;;;16.17;9.85;;;27.00;84.40;;;;;;4228715;28;20035;-65
2022/02/06 10:55:19;;;;;;;16.77;9.90;;;27.00;84.60;;;;;;4225460;28;20097;-66
2022/02/06 10:57:28;;;;;;;21.25;8.13;;;27.00;85.00;;;;;;4228231;28;20035;-65
2022/02/06 10:59:49;;;;;;;22.05;7.32;;;27.00;85.50;;;;;;4221960;28;20067;-66
2022/02/06 11:01:54;;;;;;;24.17;7.63;;;26.90;85.80;;;;;;4219573;28;20113;-65
2022/02/06 11:04:28;;;;;;;29.30;8.68;;;26.90;86.20;;;;;;4221729;28;20043;-65
2022/02/06 11:06:44;;;;;;;21.67;6.78;;;26.90;86.60;;;;;;4224357;28;20126;-66
2022/02/06 11:08:48;;;;;;;21.20;6.20;;;26.80;87.10;;;;;;4227942;28;20052;-66
2022/02/06 11:11:05;;;;;;;15.32;7.63;;;26.80;87.60;;;;;;4219609;28;20056;-63
2022/02/06 11:13:10;;;;;;;24.75;8.70;;;26.80;87.50;;;;;;4220374;28;20028;-66
2022/02/06 11:15:35;;;;;;;38.72;11.65;;;26.70;87.50;;;;;;4209707;28;20044;-66
2022/02/06 11:17:40;;;;;;;35.67;13.32;;;26.70;87.80;;;;;;4225921;28;20048;-66
2022/02/06 11:19:58;;;;;;;47.75;14.18;;;26.60;88.20;;;;;;4219698;28;20083;-64
2022/02/06 11:22:12;;;;;;;44.47;14.02;;;26.60;89.30;;;;;;4221123;28;20055;-65
2022/02/06 11:24:21;;;;;;;30.50;12.88;;;26.60;89.70;;;;;;4219596;28;20391;-66
2022/02/06 11:26:26;;;;;;;31.10;13.02;;;26.60;90.10;;;;;;4219270;28;20364;-65
2022/02/06 11:28:31;;;;;;;29.90;12.15;;;26.50;90.20;;;;;;4213709;28;20094;-65
2022/02/06 11:30:42;;;;;;;23.33;11.57;;;26.50;90.30;;;;;;4221441;28;20034;-66
2022/02/06 11:32:46;;;;;;;28.48;11.52;;;26.50;90.30;;;;;;4230000;28;20140;-65
2022/02/06 11:34:50;;;;;;;32.25;25.08;;;26.50;90.40;;;;;;4229687;28;20074;-66
2022/02/06 11:44:50;;;;;;;34.47;25.17;;;26.40;91.40;;;;;;4220793;28;20069;-66
2022/02/06 11:47:18;;;;;;;32.08;19.67;;;26.40;91.20;;;;;;4223423;28;20500;-66
2022/02/06 11:49:22;;;;;;;27.92;17.35;;;26.40;91.10;;;;;;4220357;28;20515;-65
2022/02/06 11:51:27;;;;;;;22.88;15.90;;;26.30;91.10;;;;;;4222456;28;20067;-65
2022/02/06 11:53:39;;;;;;;25.42;15.80;;;26.30;91.20;;;;;;4222102;28;20039;-65
2022/02/06 11:55:48;;;;;;;23.10;15.10;;;26.30;91.10;;;;;;4224707;28;20071;-65
2022/02/06 11:58:32;;;;;;;22.77;15.48;;;26.30;91.00;;;;;;4223814;28;20047;-66
2022/02/06 12:00:36;;;;;;;23.80;16.23;;;26.20;90.90;;;;;;4221475;28;20040;-65
2022/02/06 12:02:48;;;;;;;25.10;15.15;;;26.20;90.90;;;;;;4223533;28;20039;-65
2022/02/06 12:05:12;;;;;;;25.17;16.38;;;26.20;91.00;;;;;;4220649;28;20044;-65
2022/02/06 12:07:16;;;;;;;22.17;15.93;;;26.20;91.00;;;;;;4220760;28;20050;-65
2022/02/06 12:09:31;;;;;;;25.05;16.05;;;26.20;91.00;;;;;;4221520;28;20064;-64
2022/02/06 12:11:36;;;;;;;27.77;16.92;;;26.10;91.00;;;;;;4222636;28;20046;-66
2022/02/06 12:13:42;;;;;;;26.45;17.50;;;26.10;91.00;;;;;;4222299;28;20427;-64
2022/02/06 12:15:51;;;;;;;27.17;18.02;;;26.10;91.10;;;;;;4223299;28;20079;-65
2022/02/06 12:18:06;;;;;;;26.80;17.90;;;26.10;91.20;;;;;;4222842;28;20085;-65
2022/02/06 12:20:15;;;;;;;35.90;20.15;;;26.00;91.50;;;;;;4223882;28;20147;-66
2022/02/06 12:22:44;;;;;;;29.73;18.55;;;26.00;91.60;;;;;;4229311;28;20039;-65
2022/02/06 12:24:48;;;;;;;37.90;23.50;;;26.00;91.90;;;;;;4216394;28;20482;-65
2022/02/06 12:26:52;;;;;;;40.70;25.75;;;26.00;91.90;;;;;;4221094;28;20434;-65
2022/02/06 12:29:19;;;;;;;57.05;32.65;;;26.00;92.00;;;;;;4225642;28;20056;-64
2022/02/06 12:31:29;;;;;;;52.28;32.03;;;26.00;92.20;;;;;;4214581;28;20047;-65
2022/02/06 12:33:43;;;;;;;55.67;33.35;;;25.90;92.80;;;;;;4218146;28;20552;-63
2022/02/06 12:38:09;;;;;;;47.55;28.20;;;25.90;92.60;;;;;;4221857;28;20051;-63
2022/02/06 12:40:15;;;;;;;49.28;29.05;;;25.90;92.70;;;;;;4213405;28;20162;-64
2022/02/06 12:42:28;;;;;;;50.38;29.80;;;25.90;92.90;;;;;;4220831;28;20513;-65
2022/02/06 12:44:32;;;;;;;48.00;28.23;;;25.80;93.00;;;;;;4218893;28;20044;-64
2022/02/06 12:46:36;;;;;;;39.72;26.42;;;25.80;93.00;;;;;;4220333;28;20036;-64
2022/02/06 12:48:41;;;;;;;41.72;26.17;;;25.80;93.10;;;;;;4220277;28;20036;-65
2022/02/06 12:50:45;;;;;;;39.03;24.08;;;25.80;93.10;;;;;;4221742;28;20139;-64
2022/02/06 12:52:52;;;;;;;36.38;23.92;;;25.80;93.20;;;;;;4202448;28;20043;-65
2022/02/06 12:54:57;;;;;;;42.75;23.98;;;25.80;93.10;;;;;;4222060;28;20040;-65
2022/02/06 12:57:04;;;;;;;39.00;24.52;;;25.80;93.10;;;;;;4218699;28;20101;-65
2022/02/06 12:59:09;;;;;;;36.72;24.27;;;25.70;93.20;;;;;;4220520;28;20043;-67
2022/02/06 13:01:14;;;;;;;41.78;23.17;;;25.70;93.30;;;;;;4221633;28;20052;-65
2022/02/06 13:03:33;;;;;;;34.25;22.80;;;25.70;93.40;;;;;;4222228;28;20036;-64
2022/02/06 13:05:38;;;;;;;37.65;23.85;;;25.70;93.50;;;;;;4221234;28;20036;-64
2022/02/06 13:07:43;;;;;;;32.60;22.50;;;25.60;93.50;;;;;;4222189;28;20130;-65
2022/02/06 13:09:49;;;;;;;31.50;21.90;;;25.60;93.50;;;;;;4220554;28;20501;-67
2022/02/06 13:12:01;;;;;;;34.05;21.83;;;25.60;93.50;;;;;;4222449;28;20051;-67
2022/02/06 13:14:17;;;;;;;36.35;22.52;;;25.60;93.50;;;;;;4220727;28;20042;-64
2022/02/06 13:18:59;;;;;;;40.47;22.67;;;25.60;93.70;;;;;;4217817;28;20074;-63
2022/02/06 13:21:16;;;;;;;31.20;21.35;;;25.60;93.80;;;;;;4222655;28;20039;-64
2022/02/06 13:30:35;;;;;;;39.50;22.25;;;25.50;93.90;;;;;;4221822;28;20036;-64
2022/02/06 13:35:08;;;;;;;34.95;22.02;;;25.50;94.20;;;;;;4221175;28;20040;-64
2022/02/06 13:37:22;;;;;;;37.25;23.02;;;25.50;93.90;;;;;;4222697;28;20040;-64